Time;durP1;ratioP1;P1;durP2;ratioP2;P2;SDS_P1;SDS_P2;PMS_P1;PMS_P2;Temp;Humidity;BMP_temperature;BMP_pressure;BME280_temperature;BME280_humidity;BME280_pressure;Samples;Min_cycle;Max_cycle;Signal;HPM_P1;HPM_P2
2022/04/26 03:36:38;;;;;;;21.30;9.00;;;7.70;99.90;;;;;;4966457;28;20059;-64
2022/04/26 03:39:04;;;;;;;17.90;8.13;;;7.60;99.90;;;;;;4967282;28;20039;-64
2022/04/26 03:41:31;;;;;;;15.95;9.18;;;7.60;99.90;;;;;;4965878;28;20129;-64
2022/04/26 03:43:56;;;;;;;14.23;8.63;;;7.70;99.90;;;;;;4963331;28;20039;-64
2022/04/26 03:46:22;;;;;;;18.70;8.32;;;7.60;99.90;;;;;;4979230;28;20037;-64
2022/04/26 03:48:48;;;;;;;15.20;8.57;;;7.60;99.90;;;;;;4980476;28;20121;-64
2022/04/26 03:51:13;;;;;;;20.92;9.00;;;7.60;99.90;;;;;;4965049;28;20110;-64
2022/04/26 03:53:39;;;;;;;19.08;8.57;;;7.60;99.90;;;;;;4980096;28;20050;-64
2022/04/26 03:56:05;;;;;;;15.77;8.95;;;7.60;99.90;;;;;;4963418;28;20101;-64
2022/04/26 03:58:31;;;;;;;15.70;8.43;;;7.70;99.90;;;;;;4964344;28;20047;-64
2022/04/26 04:00:57;;;;;;;17.80;8.18;;;7.60;99.90;;;;;;4966148;28;20043;-64
2022/04/26 04:03:23;;;;;;;16.10;8.27;;;7.50;99.90;;;;;;4967579;28;20062;-65
2022/04/26 04:05:48;;;;;;;17.40;8.27;;;7.60;99.90;;;;;;4963396;28;20467;-64
2022/04/26 04:08:14;;;;;;;23.73;9.48;;;7.50;99.90;;;;;;4964834;28;20035;-64
2022/04/26 04:10:39;;;;;;;17.13;7.95;;;7.60;99.90;;;;;;4964041;28;20038;-64
2022/04/26 04:13:05;;;;;;;19.33;9.02;;;7.60;99.90;;;;;;4964842;28;20113;-64
2022/04/26 04:15:31;;;;;;;22.95;9.32;;;7.50;99.90;;;;;;4965578;28;20125;-64
2022/04/26 04:17:57;;;;;;;19.27;8.43;;;7.50;99.90;;;;;;4964157;28;20121;-64
2022/04/26 04:20:23;;;;;;;15.77;7.93;;;7.50;99.90;;;;;;4942564;28;20133;-64
2022/04/26 04:22:48;;;;;;;13.32;8.15;;;7.40;99.90;;;;;;4965824;28;20181;-64
2022/04/26 04:25:18;;;;;;;16.50;8.70;;;7.40;99.90;;;;;;4964426;28;20510;-64
2022/04/26 04:27:44;;;;;;;18.63;7.93;;;7.40;99.90;;;;;;4959596;28;20038;-64
2022/04/26 04:30:10;;;;;;;19.50;8.88;;;7.40;99.90;;;;;;4981594;28;20045;-64
2022/04/26 04:32:36;;;;;;;14.98;8.27;;;7.30;99.90;;;;;;4961046;28;20050;-64
2022/04/26 04:35:01;;;;;;;14.60;8.68;;;7.40;99.90;;;;;;4966736;28;20043;-64
2022/04/26 04:37:27;;;;;;;24.02;8.65;;;7.40;99.90;;;;;;4960614;28;20588;-64
2022/04/26 04:39:52;;;;;;;14.45;7.78;;;7.40;99.90;;;;;;4961669;28;20034;-64
2022/04/26 04:42:19;;;;;;;15.60;8.57;;;7.40;99.90;;;;;;4963799;28;20038;-64
2022/04/26 04:44:44;;;;;;;16.35;7.53;;;7.40;99.90;;;;;;4959749;28;20047;-64
2022/04/26 04:47:11;;;;;;;15.48;8.23;;;7.40;99.90;;;;;;4966167;28;20205;-64
2022/04/26 04:49:37;;;;;;;29.58;10.63;;;7.30;99.90;;;;;;4964051;28;20050;-64
2022/04/26 04:52:03;;;;;;;20.20;7.82;;;7.40;99.90;;;;;;4961251;28;20166;-64
2022/04/26 04:54:28;;;;;;;16.52;7.90;;;7.40;99.90;;;;;;4962264;28;20510;-65
2022/04/26 04:56:54;;;;;;;14.70;7.63;;;7.40;99.90;;;;;;4963412;28;20043;-64
2022/04/26 04:59:19;;;;;;;14.75;8.18;;;7.40;99.90;;;;;;4976312;28;20057;-64
2022/04/26 05:01:45;;;;;;;17.02;7.75;;;7.40;99.90;;;;;;4963397;28;20073;-64
2022/04/26 05:04:11;;;;;;;16.85;6.63;;;7.50;99.90;;;;;;4963489;28;20070;-64
2022/04/26 05:06:36;;;;;;;15.02;6.15;;;7.50;99.90;;;;;;4962438;28;20042;-64
2022/04/26 05:09:02;;;;;;;17.55;7.50;;;7.50;99.90;;;;;;4963000;28;20421;-64
2022/04/26 05:11:28;;;;;;;13.50;6.75;;;7.50;99.90;;;;;;4962413;28;20054;-64
2022/04/26 05:13:53;;;;;;;20.88;7.55;;;7.40;99.90;;;;;;4962577;28;20055;-64
2022/04/26 05:16:19;;;;;;;16.35;7.32;;;7.60;99.90;;;;;;4962038;28;20543;-64
2022/04/26 05:18:45;;;;;;;11.73;6.85;;;7.50;99.90;;;;;;4961129;28;20499;-64
2022/04/26 05:21:14;;;;;;;12.93;6.35;;;7.60;99.90;;;;;;4960851;28;20050;-64
2022/04/26 05:26:26;;;;;;;15.30;7.75;;;7.60;99.90;;;;;;4963114;28;20047;-64
2022/04/26 05:28:51;;;;;;;12.10;6.05;;;7.60;99.90;;;;;;4962505;28;21720;-64
2022/04/26 05:31:17;;;;;;;12.80;5.75;;;7.60;99.90;;;;;;4962735;28;20049;-64
2022/04/26 05:33:43;;;;;;;16.23;5.30;;;7.70;99.90;;;;;;4960962;28;20504;-64
2022/04/26 05:36:09;;;;;;;23.60;6.32;;;7.70;99.90;;;;;;4962066;28;20106;-64
2022/04/26 05:38:35;;;;;;;17.98;5.07;;;7.70;99.90;;;;;;4975213;28;20049;-64
2022/04/26 05:41:01;;;;;;;13.35;5.13;;;7.80;99.90;;;;;;4959008;28;20054;-64
2022/04/26 05:43:27;;;;;;;13.52;5.68;;;7.80;99.90;;;;;;4960550;28;20050;-64
2022/04/26 05:45:52;;;;;;;16.75;4.93;;;8.00;99.90;;;;;;4961706;28;20078;-64
2022/04/26 05:48:18;;;;;;;17.40;4.30;;;8.10;99.90;;;;;;4958098;28;20392;-64
2022/04/26 05:50:44;;;;;;;12.52;4.63;;;8.30;99.90;;;;;;4960837;28;20034;-64
2022/04/26 05:53:10;;;;;;;14.32;4.00;;;8.30;99.90;;;;;;4957899;28;20043;-64
2022/04/26 05:55:36;;;;;;;10.60;3.80;;;8.30;99.90;;;;;;4958087;28;20130;-64
2022/04/26 05:58:04;;;;;;;10.77;4.32;;;8.40;99.90;;;;;;4960962;28;20047;-64
2022/04/26 06:00:30;;;;;;;13.57;3.67;;;8.40;99.90;;;;;;4960186;28;20473;-64
2022/04/26 06:02:57;;;;;;;9.50;3.92;;;8.40;99.90;;;;;;4973347;28;20391;-64
2022/04/26 06:05:23;;;;;;;11.32;4.50;;;8.60;99.90;;;;;;4957298;28;20049;-66
2022/04/26 06:07:49;;;;;;;15.93;4.35;;;8.80;99.90;;;;;;4960577;28;20046;-65
2022/04/26 06:10:15;;;;;;;15.68;4.05;;;9.00;99.90;;;;;;4959740;28;20058;-65
2022/04/26 06:12:44;;;;;;;9.93;3.72;;;9.10;99.90;;;;;;4960643;28;20042;-65
2022/04/26 06:15:11;;;;;;;8.20;3.13;;;9.10;99.90;;;;;;4956866;28;20050;-65
2022/04/26 06:17:36;;;;;;;13.55;3.70;;;9.10;99.90;;;;;;4973467;28;20050;-65
2022/04/26 06:20:03;;;;;;;11.48;2.65;;;9.50;99.90;;;;;;4958462;28;20039;-65
2022/04/26 06:22:29;;;;;;;12.80;2.85;;;10.00;99.90;;;;;;4956364;28;20457;-65
2022/04/26 06:24:54;;;;;;;10.95;2.63;;;10.60;99.90;;;;;;4957594;28;20134;-65
2022/04/26 06:27:21;;;;;;;10.73;3.50;;;10.90;99.90;;;;;;4958618;28;20548;-65
2022/04/26 06:29:46;;;;;;;10.15;2.83;;;11.40;99.90;;;;;;4953860;28;20457;-65
2022/04/26 06:32:12;;;;;;;8.40;2.70;;;11.90;99.90;;;;;;4959092;28;20046;-65
2022/04/26 06:34:38;;;;;;;6.43;2.65;;;12.50;99.90;;;;;;4958095;28;20130;-65
2022/04/26 06:37:04;;;;;;;7.90;2.95;;;12.70;99.90;;;;;;4958016;28;20105;-65
2022/04/26 06:39:30;;;;;;;11.05;3.45;;;12.90;99.90;;;;;;4961315;28;20035;-65
2022/04/26 06:41:55;;;;;;;12.63;3.08;;;13.10;99.90;;;;;;4962616;28;20036;-65
2022/04/26 06:44:21;;;;;;;11.70;2.70;;;13.50;99.90;;;;;;4957550;28;20497;-66
2022/04/26 06:46:47;;;;;;;9.88;2.90;;;13.40;99.90;;;;;;4958590;28;20045;-65
2022/04/26 06:49:12;;;;;;;7.88;2.78;;;13.30;99.90;;;;;;4976193;28;20053;-65
2022/04/26 06:51:44;;;;;;;13.15;2.63;;;13.00;99.90;;;;;;4963767;28;20039;-65
2022/04/26 06:54:12;;;;;;;9.45;2.42;;;13.00;99.90;;;;;;4959244;28;20058;-65
2022/04/26 06:56:45;;;;;;;9.10;2.10;;;13.00;99.90;;;;;;4960824;28;20097;-65
2022/04/26 06:59:12;;;;;;;6.10;1.75;;;12.90;99.90;;;;;;4963800;28;20054;-65
2022/04/26 07:01:39;;;;;;;9.65;2.58;;;12.40;99.90;;;;;;4962096;28;20035;-65
2022/04/26 07:04:05;;;;;;;6.53;2.10;;;12.00;99.90;;;;;;4961138;28;20435;-65
2022/04/26 07:06:31;;;;;;;12.50;2.88;;;11.70;99.90;;;;;;4963684;28;20047;-65
2022/04/26 07:08:56;;;;;;;4.95;2.28;;;11.40;99.90;;;;;;4961885;28;20039;-65
2022/04/26 07:11:22;;;;;;;5.80;1.50;;;11.20;99.90;;;;;;4966156;28;20039;-65
2022/04/26 07:13:48;;;;;;;8.20;2.42;;;11.30;99.90;;;;;;4963619;28;20133;-65
2022/04/26 07:16:14;;;;;;;5.60;1.42;;;11.10;99.90;;;;;;4977677;28;20047;-65
2022/04/26 07:18:40;;;;;;;6.57;1.58;;;10.80;99.90;;;;;;4965932;28;20035;-65
2022/04/26 07:21:06;;;;;;;5.22;1.67;;;10.60;99.90;;;;;;4964318;28;20042;-65
2022/04/26 07:23:31;;;;;;;3.35;1.27;;;10.50;99.90;;;;;;4963341;28;20047;-65
2022/04/26 07:25:57;;;;;;;5.10;1.30;;;10.40;99.90;;;;;;4965232;28;20079;-65
2022/04/26 07:28:24;;;;;;;6.78;1.90;;;10.30;99.90;;;;;;4965035;28;20039;-65
2022/04/26 07:30:49;;;;;;;10.32;2.10;;;10.40;99.90;;;;;;4963364;28;20552;-65
2022/04/26 07:35:59;;;;;;;6.65;1.92;;;11.10;99.90;;;;;;4979190;28;20130;-65
2022/04/26 07:38:25;;;;;;;5.45;1.65;;;11.60;99.90;;;;;;4960315;28;20047;-65
2022/04/26 07:40:51;;;;;;;11.32;2.40;;;12.20;99.90;;;;;;4963955;28;20121;-65
2022/04/26 07:43:17;;;;;;;8.52;2.50;;;12.60;99.90;;;;;;4964313;28;20660;-65
2022/04/26 07:45:44;;;;;;;5.60;2.10;;;13.00;99.90;;;;;;4961154;28;20039;-65
2022/04/26 07:48:11;;;;;;;13.73;2.28;;;13.30;99.90;;;;;;4964204;28;20039;-65
2022/04/26 07:50:37;;;;;;;9.52;2.10;;;13.50;99.90;;;;;;4964774;28;20407;-65
2022/04/26 07:53:05;;;;;;;7.03;1.70;;;13.60;99.90;;;;;;4978811;28;20035;-65
2022/04/26 07:55:32;;;;;;;4.60;1.38;;;13.70;99.90;;;;;;4959706;28;20050;-65
2022/04/26 07:57:58;;;;;;;4.43;1.52;;;13.50;99.90;;;;;;4963660;28;20543;-65
2022/04/26 08:00:25;;;;;;;6.30;1.70;;;13.30;99.90;;;;;;4961852;28;20401;-65
2022/04/26 08:02:51;;;;;;;7.43;1.67;;;12.90;99.90;;;;;;4963201;28;20042;-65
2022/04/26 08:05:16;;;;;;;6.18;1.80;;;12.70;99.90;;;;;;4975703;28;20043;-65
2022/04/26 08:07:42;;;;;;;9.20;2.17;;;12.40;99.90;;;;;;4962870;28;20034;-65
2022/04/26 08:10:10;;;;;;;5.75;1.48;;;12.10;99.90;;;;;;4959625;28;20054;-66
2022/04/26 08:12:37;;;;;;;7.03;1.30;;;12.20;99.90;;;;;;4958305;28;20624;-65
2022/04/26 08:15:03;;;;;;;4.38;1.50;;;12.40;99.90;;;;;;4962916;28;20038;-65
2022/04/26 08:17:29;;;;;;;5.18;1.45;;;12.60;99.90;;;;;;4963376;28;20062;-65
2022/04/26 08:19:54;;;;;;;6.43;1.58;;;12.70;99.90;;;;;;4959014;28;20135;-65
2022/04/26 08:22:20;;;;;;;5.78;1.70;;;12.80;99.90;;;;;;4961388;28;20039;-65
2022/04/26 08:27:32;;;;;;;7.18;1.88;;;13.60;99.90;;;;;;4963438;28;20058;-65
2022/04/26 08:29:58;;;;;;;9.77;2.35;;;13.50;99.90;;;;;;4962159;28;20042;-65
2022/04/26 08:32:26;;;;;;;7.00;2.28;;;13.30;99.90;;;;;;4962355;28;20154;-65
2022/04/26 08:34:55;;;;;;;6.40;2.03;;;13.00;99.90;;;;;;4961189;28;20096;-65
2022/04/26 08:37:23;;;;;;;8.95;2.72;;;12.60;99.90;;;;;;4961833;28;20042;-65
2022/04/26 08:39:52;;;;;;;5.78;1.63;;;12.40;99.90;;;;;;4962126;28;20482;-65
2022/04/26 08:42:35;;;;;;;7.47;2.05;;;12.40;99.90;;;;;;4958876;28;20542;-65
2022/04/26 08:45:04;;;;;;;5.28;1.55;;;12.80;99.90;;;;;;4960623;28;20039;-65
2022/04/26 08:52:58;;;;;;;4.85;1.58;;;13.70;99.90;;;;;;4964355;28;20086;-65
2022/04/26 08:55:24;;;;;;;6.82;1.67;;;13.80;99.90;;;;;;4964602;28;20078;-65
2022/04/26 08:57:51;;;;;;;4.00;2.05;;;13.80;99.90;;;;;;4959456;28;20058;-65
2022/04/26 09:00:17;;;;;;;3.40;1.90;;;13.70;99.90;;;;;;4961062;28;20046;-65
2022/04/26 09:02:58;;;;;;;4.68;1.63;;;13.80;99.90;;;;;;4964858;28;20035;-65
2022/04/26 09:05:23;;;;;;;5.88;2.30;;;14.00;99.90;;;;;;4960804;28;20039;-65
2022/04/26 09:07:49;;;;;;;3.78;2.00;;;13.90;99.50;;;;;;4962580;28;20093;-66
2022/04/26 09:10:18;;;;;;;5.82;1.63;;;13.70;99.60;;;;;;4959175;28;20042;-65
2022/04/26 09:13:11;;;;;;;4.80;1.58;;;13.80;99.90;;;;;;4975259;28;20386;-65
2022/04/26 09:15:41;;;;;;;5.18;1.80;;;13.60;99.40;;;;;;4961124;28;20038;-64
2022/04/26 09:18:17;;;;;;;6.60;2.30;;;13.60;99.90;;;;;;4962474;28;20043;-65
2022/04/26 09:20:44;;;;;;;8.82;2.13;;;13.50;99.30;;;;;;4958521;28;20113;-65
2022/04/26 09:23:18;;;;;;;7.55;2.20;;;13.70;99.90;;;;;;4961507;28;20035;-65
2022/04/26 09:25:45;;;;;;;8.10;2.17;;;14.00;99.90;;;;;;4956827;28;20030;-65
2022/04/26 09:28:26;;;;;;;6.97;2.40;;;14.40;99.90;;;;;;4960022;28;20452;-65
2022/04/26 09:30:52;;;;;;;6.30;1.83;;;14.50;99.40;;;;;;4957972;28;20129;-65
2022/04/26 09:33:34;;;;;;;10.00;1.92;;;13.90;96.20;;;;;;4963810;28;20121;-65
2022/04/26 09:36:09;;;;;;;3.45;1.30;;;13.50;96.90;;;;;;4961080;28;20173;-65
2022/04/26 09:38:35;;;;;;;8.88;1.58;;;13.30;98.00;;;;;;4959516;28;20051;-65
2022/04/26 09:41:04;;;;;;;10.70;2.58;;;13.20;99.00;;;;;;4959846;28;20489;-65
2022/04/26 09:43:30;;;;;;;2.85;1.45;;;13.50;99.90;;;;;;4960093;28;20035;-64
2022/04/26 09:45:57;;;;;;;3.70;1.17;;;13.70;99.90;;;;;;4958164;28;21432;-65
2022/04/26 09:48:27;;;;;;;7.20;1.77;;;14.00;99.90;;;;;;4963843;28;20082;-65
2022/04/26 09:50:53;;;;;;;6.82;1.70;;;14.50;99.90;;;;;;4960733;28;20039;-65
2022/04/26 09:53:18;;;;;;;4.22;1.33;;;14.90;99.10;;;;;;4963771;28;20030;-65
2022/04/26 09:55:45;;;;;;;5.18;1.67;;;14.40;94.70;;;;;;4961912;28;20156;-65
2022/04/26 09:58:13;;;;;;;7.03;2.08;;;14.40;97.00;;;;;;4958391;28;20035;-65
2022/04/26 10:00:42;;;;;;;5.38;1.40;;;14.40;97.00;;;;;;4958767;28;20493;-65
2022/04/26 10:03:15;;;;;;;3.90;1.58;;;14.40;96.50;;;;;;4957309;28;20480;-65
2022/04/26 10:05:42;;;;;;;4.30;1.55;;;14.70;97.70;;;;;;4958043;28;20096;-65
2022/04/26 10:08:09;;;;;;;5.18;1.70;;;14.60;95.80;;;;;;4961218;28;20042;-65
2022/04/26 10:10:34;;;;;;;6.28;1.50;;;14.70;95.90;;;;;;4962233;28;20046;-65
2022/04/26 10:15:46;;;;;;;2.57;1.37;;;14.50;94.10;;;;;;4961677;28;20104;-65
2022/04/26 10:18:31;;;;;;;3.33;1.77;;;14.70;96.40;;;;;;4956171;28;20134;-65
2022/04/26 10:20:58;;;;;;;8.17;1.73;;;15.00;93.10;;;;;;4961159;28;20051;-65
2022/04/26 10:23:23;;;;;;;4.50;1.83;;;15.00;94.30;;;;;;4962677;28;20043;-65
2022/04/26 10:26:11;;;;;;;3.85;1.50;;;15.00;94.10;;;;;;4962734;28;20039;-65
2022/04/26 10:29:06;;;;;;;3.30;1.40;;;14.80;91.00;;;;;;4962401;28;20042;-65
2022/04/26 10:31:47;;;;;;;3.80;1.60;;;14.70;90.90;;;;;;4946585;28;20408;-65
2022/04/26 10:34:26;;;;;;;6.40;1.45;;;14.70;93.30;;;;;;4964924;28;20042;-65
2022/04/26 10:37:07;;;;;;;6.13;1.40;;;14.70;91.70;;;;;;4965407;28;20086;-65
2022/04/26 10:39:35;;;;;;;4.75;1.50;;;14.90;90.90;;;;;;4968300;28;20043;-65
2022/04/26 10:42:03;;;;;;;2.63;0.90;;;14.90;90.00;;;;;;4962539;28;20039;-65
2022/04/26 10:44:41;;;;;;;6.78;1.67;;;15.20;92.80;;;;;;4964106;28;20081;-65
2022/04/26 10:47:07;;;;;;;7.60;2.40;;;15.10;91.80;;;;;;4963337;28;20066;-65
2022/04/26 10:49:32;;;;;;;6.88;1.38;;;15.30;92.00;;;;;;4963565;28;20468;-65
2022/04/26 10:52:22;;;;;;;4.55;1.27;;;15.60;93.30;;;;;;4963806;28;20133;-65
2022/04/26 10:55:03;;;;;;;5.13;1.10;;;16.00;91.50;;;;;;4978857;28;20062;-65
2022/04/26 10:57:39;;;;;;;3.13;0.93;;;16.00;90.70;;;;;;4978746;28;20513;-65
2022/04/26 11:00:09;;;;;;;;;;;15.90;89.40;;;;;;4962361;28;20137;-65
2022/04/26 11:02:40;;;;;;;5.53;1.63;;;15.80;86.00;;;;;;4964191;28;20372;-65
2022/04/26 11:05:09;;;;;;;4.97;1.33;;;16.00;89.80;;;;;;4961309;28;20074;-65
2022/04/26 11:07:36;;;;;;;5.28;1.60;;;16.40;89.10;;;;;;4963268;28;20165;-65
2022/04/26 11:10:04;;;;;;;3.75;1.83;;;16.00;85.30;;;;;;4964397;28;20051;-65
2022/04/26 11:12:33;;;;;;;4.95;1.20;;;15.80;84.60;;;;;;4966579;28;20098;-65
2022/04/26 11:15:13;;;;;;;3.78;0.88;;;15.70;84.80;;;;;;4962591;28;20081;-65
2022/04/26 11:17:41;;;;;;;3.00;1.00;;;15.70;89.10;;;;;;4981296;28;20131;-65
2022/04/26 11:20:12;;;;;;;4.97;1.40;;;15.90;87.90;;;;;;4958396;28;20328;-65
2022/04/26 11:22:51;;;;;;;5.75;1.40;;;16.10;89.80;;;;;;4960150;28;20467;-65
2022/04/26 11:28:06;;;;;;;5.25;1.08;;;15.90;80.40;;;;;;4963745;28;20042;-65
2022/04/26 11:30:52;;;;;;;2.97;1.30;;;15.80;82.50;;;;;;4961201;28;20051;-64
2022/04/26 11:33:20;;;;;;;5.90;1.27;;;16.00;88.70;;;;;;4962612;28;20504;-65
2022/04/26 11:35:56;;;;;;;2.90;1.25;;;15.80;82.60;;;;;;4958388;28;20051;-65
2022/04/26 11:38:22;;;;;;;4.82;1.13;;;15.50;84.40;;;;;;4960177;28;20038;-65
2022/04/26 11:40:51;;;;;;;3.75;1.13;;;14.90;81.40;;;;;;4957672;28;20070;-65
2022/04/26 11:43:20;;;;;;;3.20;1.30;;;14.50;82.20;;;;;;4962302;28;20158;-65
2022/04/26 11:45:50;;;;;;;3.10;1.00;;;14.50;84.00;;;;;;4960202;28;20480;-65
2022/04/26 11:48:21;;;;;;;7.47;1.63;;;14.80;80.70;;;;;;4963487;28;20030;-65
2022/04/26 11:50:49;;;;;;;4.47;1.40;;;15.10;82.30;;;;;;4962738;28;20050;-64
2022/04/26 11:53:18;;;;;;;4.72;1.35;;;15.30;85.30;;;;;;4961384;28;20054;-64
2022/04/26 11:55:52;;;;;;;3.47;1.45;;;15.50;83.90;;;;;;4977914;28;20504;-64
2022/04/26 11:58:22;;;;;;;8.40;1.67;;;15.80;84.80;;;;;;4960899;28;20042;-64
2022/04/26 12:01:12;;;;;;;2.95;0.98;;;16.00;83.90;;;;;;4978520;28;20058;-65
2022/04/26 12:03:49;;;;;;;4.07;1.05;;;16.20;83.60;;;;;;4962912;28;20422;-65
2022/04/26 12:06:32;;;;;;;4.18;1.15;;;16.40;78.60;;;;;;4964183;28;20038;-65
2022/04/26 12:09:03;;;;;;;6.38;1.65;;;16.10;76.80;;;;;;4958704;28;20613;-65
2022/04/26 12:11:32;;;;;;;4.38;1.65;;;15.70;78.30;;;;;;4961126;28;20187;-65
2022/04/26 12:14:11;;;;;;;4.55;1.48;;;15.50;82.20;;;;;;4963954;28;20105;-66
2022/04/26 12:16:48;;;;;;;2.95;1.23;;;15.80;85.60;;;;;;4963036;28;20070;-66
2022/04/26 12:19:14;;;;;;;2.63;1.00;;;15.90;79.40;;;;;;4960432;28;20047;-64
2022/04/26 12:21:57;;;;;;;3.53;1.27;;;15.60;75.80;;;;;;4961540;28;20097;-65
2022/04/26 12:24:26;;;;;;;3.00;1.05;;;15.40;79.40;;;;;;4961426;28;20125;-62
2022/04/26 12:26:59;;;;;;;7.07;1.70;;;15.30;78.20;;;;;;4958424;28;20082;-63
2022/04/26 12:29:29;;;;;;;5.75;1.42;;;15.00;80.90;;;;;;4960456;28;20055;-65
2022/04/26 12:31:56;;;;;;;3.45;1.48;;;15.00;80.10;;;;;;4962912;28;20050;-64
2022/04/26 12:34:29;;;;;;;5.68;1.52;;;14.80;79.70;;;;;;4962637;28;20436;-65
2022/04/26 12:37:00;;;;;;;3.80;1.20;;;14.70;81.70;;;;;;4961312;28;20077;-65
2022/04/26 12:39:42;;;;;;;1.83;1.08;;;14.70;83.00;;;;;;4963676;28;20482;-65
2022/04/26 12:42:12;;;;;;;5.85;1.60;;;15.00;86.30;;;;;;4956231;28;20413;-65
2022/04/26 12:44:52;;;;;;;4.82;1.60;;;15.50;84.00;;;;;;4955996;28;20106;-65
2022/04/26 12:52:53;;;;;;;5.32;1.17;;;15.70;77.20;;;;;;4952477;28;20448;-65
2022/04/26 12:55:30;;;;;;;4.72;1.40;;;15.50;76.50;;;;;;4955813;28;20268;-66
2022/04/26 12:58:04;;;;;;;5.70;1.88;;;15.30;76.40;;;;;;4953983;28;20058;-65
2022/04/26 13:00:30;;;;;;;2.78;1.23;;;15.30;78.10;;;;;;4956226;28;20085;-66
2022/04/26 13:03:03;;;;;;;4.22;1.50;;;15.70;79.80;;;;;;4969361;28;20134;-66
2022/04/26 13:05:35;;;;;;;5.45;1.50;;;15.80;76.80;;;;;;4955638;28;20053;-66
2022/04/26 13:08:02;;;;;;;4.53;1.17;;;15.90;78.30;;;;;;4955352;28;20046;-66
2022/04/26 13:10:27;;;;;;;3.75;1.38;;;15.80;78.20;;;;;;4955745;28;20055;-66
2022/04/26 13:13:05;;;;;;;3.85;1.38;;;15.70;77.60;;;;;;5078052;27;20122;-66
2022/04/26 13:15:31;;;;;;;4.40;1.52;;;15.70;80.60;;;;;;5063875;28;20037;-64
2022/04/26 13:17:59;;;;;;;3.42;1.13;;;15.90;84.20;;;;;;5029813;28;20071;-67
2022/04/26 13:20:25;;;;;;;4.25;1.20;;;16.10;82.40;;;;;;5034149;28;20252;-68
2022/04/26 13:22:51;;;;;;;5.88;1.20;;;16.40;80.30;;;;;;5032927;28;20045;-68
2022/04/26 13:25:17;;;;;;;2.55;1.20;;;16.70;79.00;;;;;;5034176;28;20034;-67
2022/04/26 13:27:42;;;;;;;34.72;2.15;;;16.90;81.00;;;;;;5034736;28;20193;-67
2022/04/26 13:30:08;;;;;;;3.45;1.02;;;17.10;77.10;;;;;;5034744;28;20073;-67
2022/04/26 13:32:34;;;;;;;2.90;1.25;;;16.90;75.40;;;;;;5037950;28;20052;-66
2022/04/26 13:35:01;;;;;;;4.57;1.42;;;17.00;77.00;;;;;;5034833;28;20044;-66
2022/04/26 13:37:27;;;;;;;4.43;2.30;;;17.20;76.80;;;;;;5033056;28;20037;-67
2022/04/26 13:39:54;;;;;;;6.93;1.83;;;17.10;73.30;;;;;;5035486;28;20033;-67
2022/04/26 13:42:21;;;;;;;5.60;1.27;;;17.10;74.80;;;;;;5031053;28;20133;-67
2022/04/26 13:44:47;;;;;;;3.97;1.42;;;17.00;74.80;;;;;;5033669;28;20054;-67
2022/04/26 13:47:13;;;;;;;5.32;1.33;;;16.90;75.40;;;;;;5033601;28;20491;-67
2022/04/26 13:49:39;;;;;;;3.08;1.20;;;16.90;76.20;;;;;;5034218;28;20557;-67
2022/04/26 13:52:06;;;;;;;3.03;0.98;;;16.90;75.60;;;;;;5030300;28;20037;-67
2022/04/26 13:54:32;;;;;;;5.25;1.30;;;17.00;74.50;;;;;;5033976;28;20052;-67
2022/04/26 13:56:58;;;;;;;4.70;1.27;;;16.80;74.30;;;;;;5035820;28;20930;-67
2022/04/26 13:59:26;;;;;;;4.72;1.17;;;16.50;75.00;;;;;;5035230;28;20068;-67
2022/04/26 14:01:53;;;;;;;10.52;1.75;;;16.40;76.60;;;;;;5031721;28;20041;-67
2022/04/26 14:04:22;;;;;;;3.55;0.95;;;16.60;77.00;;;;;;5031110;28;20480;-67
2022/04/26 14:06:48;;;;;;;6.60;1.45;;;16.60;77.80;;;;;;5033231;28;20634;-67
2022/04/26 14:09:15;;;;;;;3.08;1.00;;;16.70;77.10;;;;;;5035115;28;20120;-67
2022/04/26 14:11:41;;;;;;;3.53;1.17;;;16.60;76.00;;;;;;5033925;28;20051;-67
2022/04/26 14:22:20;;;;;;;2.85;1.10;;;15.90;74.60;;;;;;5031190;28;20065;-67
2022/04/26 14:24:48;;;;;;;4.32;1.60;;;15.90;76.90;;;;;;5019895;28;20180;-67
2022/04/26 14:27:14;;;;;;;3.92;1.50;;;15.80;76.30;;;;;;5019507;28;20041;-67
2022/04/26 14:29:40;;;;;;;2.15;1.10;;;15.70;76.80;;;;;;5020508;28;20087;-66
2022/04/26 14:32:07;;;;;;;2.85;1.20;;;15.20;76.40;;;;;;5021479;28;20045;-67
2022/04/26 14:34:33;;;;;;;3.75;1.35;;;15.00;74.40;;;;;;5020009;28;20034;-67
2022/04/26 14:37:02;;;;;;;2.55;1.20;;;15.00;76.30;;;;;;5021987;28;20049;-66
2022/04/26 14:39:27;;;;;;;3.50;1.02;;;14.70;76.40;;;;;;5020703;28;20045;-67
2022/04/26 14:41:53;;;;;;;3.60;1.30;;;14.70;79.20;;;;;;5020980;28;20053;-67
2022/04/26 14:44:19;;;;;;;4.35;1.08;;;14.90;79.10;;;;;;5016157;28;20037;-67
2022/04/26 14:46:45;;;;;;;9.98;1.33;;;15.10;78.80;;;;;;5049339;28;20071;-67
2022/04/26 14:49:11;;;;;;;6.18;1.17;;;15.10;78.10;;;;;;5023515;28;20513;-66
2022/04/26 14:51:37;;;;;;;4.40;1.73;;;15.10;78.00;;;;;;5018744;28;20403;-66
2022/04/26 14:54:02;;;;;;;1.48;0.98;;;15.20;80.20;;;;;;5021730;28;20042;-66
2022/04/26 14:56:28;;;;;;;7.63;1.55;;;15.30;79.00;;;;;;5015830;28;20070;-65
2022/04/26 14:58:54;;;;;;;3.72;1.77;;;15.40;79.60;;;;;;5016130;28;20041;-66
2022/04/26 15:01:20;;;;;;;5.97;1.02;;;15.50;76.80;;;;;;5017577;28;20204;-66
2022/04/26 15:03:46;;;;;;;4.60;1.10;;;15.50;76.70;;;;;;5017370;28;20108;-66
2022/04/26 15:06:12;;;;;;;4.30;1.20;;;15.50;78.80;;;;;;5016652;28;20049;-66
2022/04/26 15:11:22;;;;;;;6.32;1.45;;;15.90;80.40;;;;;;5016978;28;20068;-66
2022/04/26 15:16:38;;;;;;;5.95;1.60;;;16.10;78.80;;;;;;5048902;28;20132;-66
2022/04/26 15:19:07;;;;;;;4.40;1.40;;;16.20;79.60;;;;;;5021116;28;20049;-66
2022/04/26 15:21:33;;;;;;;3.08;1.35;;;16.30;76.80;;;;;;5015628;28;20562;-66
2022/04/26 15:24:00;;;;;;;4.82;1.55;;;16.20;78.10;;;;;;5019099;28;20691;-66
2022/04/26 15:26:25;;;;;;;3.40;1.83;;;16.10;76.50;;;;;;5022644;28;20415;-66
2022/04/26 15:28:51;;;;;;;4.40;1.17;;;16.00;76.50;;;;;;5006428;28;20050;-66
2022/04/26 15:31:21;;;;;;;5.18;1.40;;;15.90;77.40;;;;;;5018569;28;20472;-66
2022/04/26 15:33:48;;;;;;;5.47;1.73;;;15.90;78.40;;;;;;5021047;28;20076;-66
2022/04/26 15:36:15;;;;;;;4.05;1.63;;;15.80;78.10;;;;;;5020096;28;20124;-66
2022/04/26 15:38:42;;;;;;;2.08;1.35;;;15.70;77.90;;;;;;5019986;28;20065;-66
2022/04/26 15:41:08;;;;;;;5.28;1.40;;;15.50;79.20;;;;;;5047958;28;20045;-66
2022/04/26 15:43:34;;;;;;;3.85;1.38;;;15.50;78.20;;;;;;5022420;28;20037;-66
2022/04/26 15:46:05;;;;;;;3.33;1.40;;;15.20;78.00;;;;;;5021691;28;20132;-66
2022/04/26 15:48:31;;;;;;;3.47;1.42;;;15.10;77.60;;;;;;5024370;28;20536;-66
2022/04/26 15:50:57;;;;;;;8.88;1.20;;;15.00;79.00;;;;;;5023970;28;20038;-66
2022/04/26 15:53:23;;;;;;;8.38;2.40;;;15.00;79.80;;;;;;5018572;28;20038;-66
2022/04/26 15:55:49;;;;;;;6.82;1.73;;;15.00;81.20;;;;;;5023959;28;20043;-66
2022/04/26 15:58:15;;;;;;;5.63;1.77;;;15.00;80.10;;;;;;5022036;28;20045;-66
2022/04/26 16:00:41;;;;;;;7.07;1.70;;;14.90;80.30;;;;;;5021791;28;20054;-66
2022/04/26 16:03:07;;;;;;;4.60;1.48;;;14.90;80.00;;;;;;5021804;28;20052;-66
2022/04/26 16:05:33;;;;;;;3.17;1.40;;;14.80;78.90;;;;;;5022737;28;20052;-66
2022/04/26 16:07:59;;;;;;;3.00;1.48;;;14.80;81.50;;;;;;5053110;28;20154;-66
2022/04/26 16:21:23;;;;;;;2.85;1.30;;;14.10;80.90;;;;;;5047096;28;20068;-67
2022/04/26 16:23:49;;;;;;;4.97;1.50;;;14.20;82.70;;;;;;5021489;28;20041;-67
2022/04/26 16:26:19;;;;;;;4.93;1.48;;;14.30;81.20;;;;;;5014636;28;20117;-67
2022/04/26 16:28:46;;;;;;;4.25;1.30;;;14.20;82.20;;;;;;5017273;28;20842;-66
2022/04/26 16:31:12;;;;;;;10.43;1.63;;;14.10;82.00;;;;;;5015639;28;20049;-67
2022/04/26 16:33:38;;;;;;;3.00;1.60;;;14.20;82.10;;;;;;5018430;28;20045;-67
2022/04/26 16:36:04;;;;;;;5.40;1.48;;;14.20;82.60;;;;;;5019270;28;20040;-67
2022/04/26 16:38:31;;;;;;;2.78;1.35;;;14.20;82.40;;;;;;5017851;28;20045;-67
2022/04/26 16:40:57;;;;;;;2.28;1.33;;;14.10;81.80;;;;;;5021735;28;20053;-67
2022/04/26 16:43:23;;;;;;;8.93;1.40;;;14.20;82.20;;;;;;5055897;28;20040;-67
2022/04/26 16:45:49;;;;;;;2.63;1.33;;;14.10;81.10;;;;;;5019782;28;20033;-67
2022/04/26 16:48:15;;;;;;;3.70;1.50;;;13.90;80.30;;;;;;5018970;28;20053;-67
2022/04/26 16:50:41;;;;;;;3.70;1.60;;;13.80;80.30;;;;;;5023341;28;20076;-67
2022/04/26 16:53:07;;;;;;;4.65;1.50;;;13.80;81.70;;;;;;5020456;28;20924;-67
2022/04/26 16:55:33;;;;;;;4.35;1.50;;;13.80;82.10;;;;;;5018265;28;20052;-67
2022/04/26 16:58:00;;;;;;;4.05;1.92;;;13.60;82.00;;;;;;5018128;28;20361;-67
2022/04/26 17:00:26;;;;;;;4.88;2.00;;;13.50;81.50;;;;;;5005881;28;20045;-67
2022/04/26 17:02:52;;;;;;;3.88;1.60;;;13.50;82.50;;;;;;5019977;28;20123;-67
2022/04/26 17:05:22;;;;;;;2.47;1.20;;;13.50;83.30;;;;;;5020360;28;20427;-67
2022/04/26 17:07:51;;;;;;;4.43;1.42;;;13.30;82.10;;;;;;5019695;28;20363;-67
2022/04/26 17:10:18;;;;;;;4.82;1.55;;;13.20;81.60;;;;;;5024128;28;20033;-67
2022/04/26 17:12:48;;;;;;;4.25;1.25;;;13.10;82.80;;;;;;5023356;28;20045;-67
2022/04/26 17:15:15;;;;;;;3.65;1.75;;;13.10;83.00;;;;;;5019422;28;20052;-67